Time;durP1;ratioP1;P1;durP2;ratioP2;P2;SDS_P1;SDS_P2;PMS_P1;PMS_P2;Temp;Humidity;BMP_temperature;BMP_pressure;BME280_temperature;BME280_humidity;BME280_pressure;Samples;Min_cycle;Max_cycle;Signal;HPM_P1;HPM_P2
2023/01/19 00:01:15;;;;;;;10.32;8.52;;;2.10;99.90;;;;;;5075994;28;20484;-77
2023/01/19 00:03:41;;;;;;;11.95;8.98;;;2.10;99.90;;;;;;5082159;28;20098;-83
2023/01/19 00:06:07;;;;;;;10.70;9.05;;;2.10;99.90;;;;;;5078572;28;20040;-83
2023/01/19 00:08:34;;;;;;;11.43;9.18;;;2.10;99.90;;;;;;5089929;28;20044;-79
2023/01/19 00:11:00;;;;;;;13.90;8.10;;;2.10;99.90;;;;;;5090241;28;20082;-81
2023/01/19 00:13:26;;;;;;;11.32;9.88;;;2.10;99.90;;;;;;5088622;28;20044;-76
2023/01/19 00:15:52;;;;;;;12.60;10.60;;;2.10;99.90;;;;;;5076147;28;20075;-79
2023/01/19 00:18:18;;;;;;;9.88;7.18;;;2.10;99.90;;;;;;5083356;28;20048;-78
2023/01/19 00:20:45;;;;;;;10.57;7.57;;;2.40;99.90;;;;;;5090005;28;20090;-81
2023/01/19 00:23:11;;;;;;;10.25;7.78;;;2.30;99.90;;;;;;5076020;28;20045;-85
2023/01/19 00:25:43;;;;;;;8.90;8.00;;;2.00;99.90;;;;;;5087765;28;20046;-79
2023/01/19 00:28:11;;;;;;;11.80;8.10;;;2.30;99.90;;;;;;5086677;28;20612;-84
2023/01/19 00:30:38;;;;;;;9.60;7.45;;;2.00;99.90;;;;;;5076560;28;20045;-77
2023/01/19 00:33:04;;;;;;;9.95;6.43;;;2.00;99.90;;;;;;5063395;28;20045;-82
2023/01/19 00:35:30;;;;;;;7.80;6.97;;;2.10;99.90;;;;;;5075173;28;20110;-77
2023/01/19 00:37:57;;;;;;;8.68;7.13;;;2.00;99.90;;;;;;5091337;28;20043;-80
2023/01/19 00:40:23;;;;;;;8.52;7.53;;;2.00;99.90;;;;;;5060947;28;20086;-78
2023/01/19 00:42:48;;;;;;;9.40;6.70;;;2.00;99.90;;;;;;5077696;28;20075;-79
2023/01/19 00:45:20;;;;;;;8.68;7.45;;;2.00;99.90;;;;;;5085048;28;20049;-77
2023/01/19 00:47:47;;;;;;;7.03;5.88;;;1.90;99.90;;;;;;5076898;28;20045;-78
2023/01/19 00:50:15;;;;;;;8.00;6.50;;;2.10;99.90;;;;;;5088643;28;20040;-83
2023/01/19 00:52:43;;;;;;;7.85;7.05;;;1.90;99.90;;;;;;5080571;28;20586;-76
2023/01/19 00:55:11;;;;;;;6.57;5.65;;;1.90;99.90;;;;;;5062108;28;20114;-76
2023/01/19 00:57:38;;;;;;;6.13;5.43;;;1.90;99.90;;;;;;5081011;28;20042;-79
2023/01/19 01:00:10;;;;;;;6.10;5.43;;;1.90;99.90;;;;;;5090507;28;20091;-76
2023/01/19 01:02:39;;;;;;;6.35;5.50;;;1.90;99.90;;;;;;5089903;28;20100;-77
2023/01/19 01:05:06;;;;;;;7.22;6.53;;;2.00;99.90;;;;;;5076199;28;20044;-77
2023/01/19 01:07:40;;;;;;;6.93;6.05;;;1.80;99.90;;;;;;5079218;28;20373;-76
2023/01/19 01:10:21;;;;;;;6.57;5.90;;;1.80;99.90;;;;;;5090253;28;20079;-80
2023/01/19 01:12:48;;;;;;;6.25;5.65;;;1.70;99.90;;;;;;5080716;28;20408;-78
2023/01/19 01:15:15;;;;;;;6.20;4.88;;;1.80;99.90;;;;;;5088880;28;20047;-80
2023/01/19 01:17:45;;;;;;;7.07;5.75;;;1.90;99.90;;;;;;5086003;28;20048;-77
2023/01/19 01:20:16;;;;;;;9.10;7.05;;;1.70;99.90;;;;;;5080439;28;20040;-80
2023/01/19 01:22:44;;;;;;;7.85;6.75;;;1.70;99.90;;;;;;5090116;28;20039;-78
2023/01/19 01:25:11;;;;;;;7.63;6.82;;;1.80;99.90;;;;;;5098263;28;20119;-77
2023/01/19 01:27:37;;;;;;;6.03;5.43;;;1.70;99.90;;;;;;5079273;28;20532;-78
2023/01/19 01:30:04;;;;;;;8.65;7.28;;;1.90;99.90;;;;;;5081133;28;20051;-77
2023/01/19 01:32:29;;;;;;;7.57;5.88;;;1.70;99.90;;;;;;5079662;28;20123;-76
2023/01/19 01:34:55;;;;;;;8.88;7.55;;;1.60;99.90;;;;;;5086944;28;20123;-75
2023/01/19 01:37:21;;;;;;;8.18;7.20;;;1.60;99.90;;;;;;5092224;28;20049;-77
2023/01/19 01:39:46;;;;;;;10.48;8.98;;;1.60;99.90;;;;;;5079155;28;20087;-79
2023/01/19 01:42:18;;;;;;;9.48;8.43;;;1.60;99.90;;;;;;5047158;28;20048;-77
2023/01/19 01:44:59;;;;;;;9.75;8.27;;;1.70;99.90;;;;;;5084881;28;20059;-77
2023/01/19 01:47:43;;;;;;;11.00;9.35;;;1.60;99.90;;;;;;5088577;28;20070;-78
2023/01/19 01:50:14;;;;;;;10.43;8.98;;;1.60;99.90;;;;;;5097257;28;20044;-77
2023/01/19 01:52:48;;;;;;;12.07;10.50;;;1.60;99.90;;;;;;5094963;28;20039;-76
2023/01/19 01:55:15;;;;;;;11.02;8.57;;;1.60;99.90;;;;;;5100637;28;20071;-83
2023/01/19 01:57:45;;;;;;;10.68;8.77;;;1.60;99.90;;;;;;5078062;28;20663;-77
2023/01/19 02:00:11;;;;;;;10.68;9.50;;;2.00;99.90;;;;;;5101604;28;20036;-76
2023/01/19 02:02:49;;;;;;;12.63;10.90;;;1.50;99.90;;;;;;5089995;28;20062;-76
2023/01/19 02:05:35;;;;;;;11.77;10.57;;;1.60;99.90;;;;;;5092311;28;20044;-77
2023/01/19 02:13:48;;;;;;;12.35;9.80;;;1.60;99.90;;;;;;5085289;28;20044;-78
2023/01/19 02:16:15;;;;;;;10.73;8.95;;;1.60;99.90;;;;;;5089952;28;20044;-81
2023/01/19 02:18:42;;;;;;;12.57;10.95;;;2.00;99.90;;;;;;5078448;28;20044;-79
2023/01/19 02:21:13;;;;;;;12.98;10.93;;;1.70;99.90;;;;;;5092262;28;20040;-78
2023/01/19 02:23:43;;;;;;;11.93;10.25;;;1.60;99.90;;;;;;5098550;28;20051;-79
2023/01/19 02:26:15;;;;;;;12.10;10.18;;;1.60;99.90;;;;;;5099967;28;20695;-81
2023/01/19 02:28:45;;;;;;;13.15;10.70;;;1.60;99.90;;;;;;5094610;28;20492;-84
2023/01/19 02:31:11;;;;;;;13.05;11.50;;;1.60;99.90;;;;;;5067456;28;20047;-77
2023/01/19 02:33:37;;;;;;;13.57;10.60;;;2.30;99.90;;;;;;5091766;28;20045;-77
2023/01/19 02:36:06;;;;;;;12.25;10.13;;;1.70;99.90;;;;;;5078280;28;20049;-76
2023/01/19 02:38:33;;;;;;;13.05;10.65;;;1.70;99.90;;;;;;5081462;28;20044;-75
2023/01/19 02:41:01;;;;;;;12.95;10.55;;;2.10;99.90;;;;;;5078629;28;20548;-75
2023/01/19 02:43:29;;;;;;;12.23;9.80;;;1.70;99.90;;;;;;5079281;28;20044;-75
2023/01/19 02:45:55;;;;;;;13.45;9.73;;;2.00;99.90;;;;;;5078892;28;20500;-77
2023/01/19 02:48:21;;;;;;;10.75;8.13;;;1.70;99.90;;;;;;5078620;28;20087;-77
2023/01/19 02:50:56;;;;;;;12.27;9.43;;;1.70;99.90;;;;;;5079768;28;20123;-76
2023/01/19 02:53:24;;;;;;;11.55;8.85;;;1.80;99.90;;;;;;5077660;28;20120;-81
2023/01/19 02:56:05;;;;;;;10.63;7.78;;;1.70;99.90;;;;;;5091828;28;20044;-84
2023/01/19 02:58:43;;;;;;;12.68;10.23;;;1.80;99.90;;;;;;5098981;28;20040;-78
2023/01/19 03:01:37;;;;;;;11.57;8.57;;;1.90;99.90;;;;;;5091273;28;20052;-82
2023/01/19 03:04:35;;;;;;;12.60;9.02;;;1.80;99.90;;;;;;5100024;28;20056;-80
2023/01/19 03:07:13;;;;;;;13.63;10.48;;;1.80;99.90;;;;;;5098706;28;20048;-83
2023/01/19 03:09:47;;;;;;;13.18;10.88;;;2.40;99.90;;;;;;5098198;28;20087;-76
2023/01/19 03:12:41;;;;;;;13.80;9.63;;;1.90;99.90;;;;;;5084773;28;20041;-78
2023/01/19 03:15:22;;;;;;;15.48;11.32;;;1.80;99.90;;;;;;5081488;28;20052;-80
2023/01/19 03:17:50;;;;;;;13.40;11.20;;;1.80;99.90;;;;;;5079049;28;20059;-78
2023/01/19 03:20:21;;;;;;;16.25;12.15;;;2.00;99.90;;;;;;5100206;28;20047;-83
2023/01/19 03:22:51;;;;;;;13.68;11.07;;;1.80;99.90;;;;;;5087600;28;20056;-78
2023/01/19 03:25:19;;;;;;;14.10;10.27;;;2.10;99.90;;;;;;5093262;28;20072;-79
2023/01/19 03:27:46;;;;;;;16.63;11.95;;;2.00;99.90;;;;;;5084675;28;20053;-82
2023/01/19 03:30:25;;;;;;;15.23;12.15;;;1.80;99.90;;;;;;5078997;28;20106;-79
2023/01/19 03:32:55;;;;;;;16.67;12.25;;;1.80;99.90;;;;;;5078269;28;20036;-76
2023/01/19 03:35:24;;;;;;;17.15;11.90;;;1.90;99.90;;;;;;5080752;28;20087;-81
2023/01/19 03:37:53;;;;;;;15.63;11.75;;;1.90;99.90;;;;;;5084378;28;20455;-78
2023/01/19 03:40:20;;;;;;;17.75;12.68;;;2.00;99.90;;;;;;5096959;28;20046;-81
2023/01/19 03:42:47;;;;;;;13.98;11.00;;;1.80;99.90;;;;;;5092438;28;20170;-79
2023/01/19 03:45:14;;;;;;;13.57;10.02;;;2.20;99.90;;;;;;5090127;28;20044;-78
2023/01/19 03:47:40;;;;;;;17.90;13.10;;;1.80;99.90;;;;;;5082156;28;20075;-82
2023/01/19 03:50:12;;;;;;;15.50;11.43;;;1.80;99.90;;;;;;5078131;28;20044;-78
2023/01/19 03:52:38;;;;;;;14.45;11.32;;;1.80;99.90;;;;;;5086961;28;20076;-76
2023/01/19 03:55:04;;;;;;;17.15;13.02;;;1.80;99.90;;;;;;5096743;28;20089;-81
2023/01/19 03:57:31;;;;;;;13.48;11.52;;;1.80;99.90;;;;;;5075896;28;20527;-77
2023/01/19 03:59:57;;;;;;;14.50;10.43;;;1.80;99.90;;;;;;5080135;28;20116;-76
2023/01/19 04:02:23;;;;;;;14.00;11.07;;;2.10;99.90;;;;;;5079020;28;20483;-75
2023/01/19 04:04:49;;;;;;;14.68;10.85;;;1.80;99.90;;;;;;5077678;28;20051;-79
2023/01/19 04:07:15;;;;;;;13.38;10.57;;;1.80;99.90;;;;;;5077390;28;20056;-81
2023/01/19 04:09:41;;;;;;;14.63;10.50;;;2.10;99.90;;;;;;5076475;28;20032;-80
2023/01/19 04:12:06;;;;;;;13.50;10.25;;;1.70;99.90;;;;;;5081576;28;20040;-79
2023/01/19 04:14:32;;;;;;;14.68;9.73;;;1.70;99.90;;;;;;5084551;28;20051;-85
2023/01/19 04:16:58;;;;;;;13.25;9.73;;;1.70;99.90;;;;;;5076174;28;20055;-82
2023/01/19 04:19:24;;;;;;;12.88;9.52;;;1.60;99.90;;;;;;5061821;28;20059;-80
2023/01/19 04:21:50;;;;;;;14.00;9.68;;;1.80;99.90;;;;;;5095607;28;20146;-80
2023/01/19 04:24:16;;;;;;;13.05;9.18;;;1.60;99.90;;;;;;5076964;28;20079;-80
2023/01/19 04:26:42;;;;;;;13.50;10.43;;;1.60;99.90;;;;;;5109894;28;20044;-81
2023/01/19 04:29:08;;;;;;;16.48;11.32;;;1.60;99.90;;;;;;5077533;28;20057;-80
2023/01/19 04:31:35;;;;;;;12.07;9.45;;;1.60;99.90;;;;;;5091014;28;20129;-82
2023/01/19 04:34:02;;;;;;;13.43;10.00;;;1.50;99.90;;;;;;5080587;28;20052;-79
2023/01/19 04:36:28;;;;;;;10.80;8.02;;;1.60;99.90;;;;;;5078079;28;20066;-77
2023/01/19 04:38:54;;;;;;;11.50;8.55;;;1.60;99.90;;;;;;5089291;28;20134;-79
2023/01/19 04:41:20;;;;;;;10.48;7.97;;;1.60;99.90;;;;;;5083487;28;20045;-78
2023/01/19 04:43:46;;;;;;;10.45;8.25;;;1.80;99.90;;;;;;5076543;28;20055;-78
2023/01/19 04:46:13;;;;;;;10.77;7.65;;;1.50;99.90;;;;;;5077002;28;20051;-80
2023/01/19 04:48:39;;;;;;;9.40;7.18;;;1.50;99.90;;;;;;5075674;28;20052;-77
2023/01/19 04:51:04;;;;;;;10.73;7.53;;;1.50;99.90;;;;;;5094959;28;20044;-80
2023/01/19 04:53:30;;;;;;;9.35;6.72;;;1.50;99.90;;;;;;5095509;28;20100;-79
2023/01/19 04:55:56;;;;;;;9.45;6.88;;;1.50;99.90;;;;;;5097138;28;20047;-81
2023/01/19 04:58:22;;;;;;;11.15;7.65;;;1.70;99.90;;;;;;5096297;28;20049;-82
2023/01/19 05:00:49;;;;;;;10.30;7.03;;;1.50;99.90;;;;;;5082862;28;20419;-81
2023/01/19 05:03:15;;;;;;;9.02;6.55;;;1.60;99.90;;;;;;5090112;28;20055;-81
2023/01/19 05:05:41;;;;;;;7.35;5.78;;;1.50;99.90;;;;;;5095849;28;20040;-81
2023/01/19 05:08:06;;;;;;;8.75;6.47;;;1.70;99.90;;;;;;5097512;28;20048;-79
2023/01/19 05:10:32;;;;;;;8.40;6.07;;;1.70;99.90;;;;;;5090647;28;20048;-79
2023/01/19 05:12:58;;;;;;;7.07;4.55;;;1.50;99.90;;;;;;5079005;28;20040;-76
2023/01/19 05:15:23;;;;;;;8.15;5.30;;;1.50;99.90;;;;;;5083857;28;20044;-78
2023/01/19 05:17:49;;;;;;;8.57;6.22;;;1.50;99.90;;;;;;5080155;28;20051;-79
2023/01/19 05:20:16;;;;;;;8.40;6.18;;;1.50;99.90;;;;;;5081530;28;20075;-78
2023/01/19 05:22:42;;;;;;;8.32;5.88;;;1.50;99.90;;;;;;5058952;28;20145;-78
2023/01/19 05:25:08;;;;;;;7.97;5.68;;;1.60;99.90;;;;;;5076835;28;20056;-76
2023/01/19 05:27:34;;;;;;;9.30;6.47;;;1.60;99.90;;;;;;5076946;28;20033;-76
2023/01/19 05:30:00;;;;;;;10.18;6.38;;;1.80;99.90;;;;;;5079895;28;20057;-77
2023/01/19 05:32:26;;;;;;;7.97;5.70;;;1.60;99.90;;;;;;5096035;28;20044;-78
2023/01/19 05:34:51;;;;;;;9.02;5.13;;;1.70;99.90;;;;;;5079524;28;20052;-76
2023/01/19 05:37:18;;;;;;;9.40;5.63;;;1.60;99.90;;;;;;5059792;28;20044;-80
2023/01/19 05:39:43;;;;;;;8.30;6.07;;;1.80;99.90;;;;;;5075424;28;20052;-78
2023/01/19 05:42:09;;;;;;;11.35;6.20;;;1.70;99.90;;;;;;5093939;28;20052;-78
2023/01/19 05:44:35;;;;;;;10.93;6.40;;;1.60;99.90;;;;;;5075138;28;20040;-79
2023/01/19 05:47:00;;;;;;;9.93;6.20;;;1.80;99.90;;;;;;5077306;28;20526;-77
2023/01/19 05:49:26;;;;;;;9.45;6.68;;;1.60;99.90;;;;;;5080818;28;20040;-76
2023/01/19 05:51:52;;;;;;;9.75;6.80;;;1.70;99.90;;;;;;5097031;28;20202;-76
2023/01/19 05:54:17;;;;;;;9.70;5.78;;;1.90;99.90;;;;;;5097486;28;20463;-77
2023/01/19 05:56:43;;;;;;;10.43;7.10;;;1.80;99.90;;;;;;5095682;28;20055;-79
2023/01/19 05:59:09;;;;;;;10.60;7.07;;;1.50;99.90;;;;;;5096931;28;20040;-79
2023/01/19 06:01:36;;;;;;;10.90;6.63;;;1.70;99.90;;;;;;5096564;28;20503;-76
2023/01/19 06:04:02;;;;;;;9.27;6.30;;;1.70;99.90;;;;;;5097173;28;20087;-77
2023/01/19 06:06:27;;;;;;;11.48;6.72;;;1.90;99.90;;;;;;5082712;28;20449;-77
2023/01/19 06:08:53;;;;;;;9.35;6.28;;;1.80;99.90;;;;;;5092295;28;20054;-77
2023/01/19 06:11:19;;;;;;;12.07;6.93;;;1.80;99.90;;;;;;5097497;28;20044;-77
2023/01/19 06:13:46;;;;;;;9.27;5.43;;;1.80;99.90;;;;;;5084837;28;20044;-76
2023/01/19 06:16:13;;;;;;;6.60;4.10;;;1.70;99.90;;;;;;5079626;28;20077;-77
2023/01/19 06:18:39;;;;;;;7.55;4.10;;;1.70;99.90;;;;;;5097887;28;20559;-76
2023/01/19 06:21:06;;;;;;;7.68;4.45;;;1.80;99.90;;;;;;5095327;28;20052;-76
2023/01/19 06:23:34;;;;;;;6.88;3.70;;;1.70;99.90;;;;;;5078427;28;20532;-76
2023/01/19 06:25:59;;;;;;;7.47;3.15;;;1.80;99.90;;;;;;5081784;28;20492;-77
2023/01/19 06:28:25;;;;;;;5.53;3.22;;;1.80;99.90;;;;;;5099480;28;20043;-77
2023/01/19 06:30:52;;;;;;;4.75;2.75;;;1.80;99.90;;;;;;5093511;28;20083;-77
2023/01/19 06:33:18;;;;;;;6.80;2.75;;;1.80;99.90;;;;;;5079740;28;20048;-76
2023/01/19 06:35:46;;;;;;;4.00;2.50;;;1.80;99.90;;;;;;5095451;28;20056;-76
2023/01/19 06:38:13;;;;;;;5.32;2.67;;;1.80;99.90;;;;;;5101747;28;20103;-76
2023/01/19 06:40:41;;;;;;;6.18;2.55;;;1.80;99.90;;;;;;5091733;28;20040;-76
2023/01/19 06:43:07;;;;;;;3.67;1.83;;;1.70;99.90;;;;;;5079640;28;20072;-76
2023/01/19 06:45:34;;;;;;;3.22;1.80;;;1.90;99.90;;;;;;5078357;28;20044;-76
2023/01/19 06:47:59;;;;;;;4.38;1.85;;;1.70;99.90;;;;;;5078658;28;20055;-76
2023/01/19 06:50:26;;;;;;;4.30;2.00;;;1.80;99.90;;;;;;5080942;28;20044;-76
2023/01/19 06:52:52;;;;;;;4.95;1.60;;;1.70;99.90;;;;;;5087367;28;20051;-76
2023/01/19 06:55:18;;;;;;;3.17;1.50;;;1.70;99.90;;;;;;5095769;28;20032;-78
2023/01/19 06:57:44;;;;;;;3.60;1.30;;;1.70;99.90;;;;;;5077600;28;20048;-77
2023/01/19 07:00:11;;;;;;;2.55;1.10;;;1.80;99.90;;;;;;5080760;28;20048;-77
2023/01/19 07:02:41;;;;;;;4.32;1.33;;;1.90;99.90;;;;;;5100210;28;20033;-78
2023/01/19 07:05:08;;;;;;;5.78;1.30;;;1.90;99.90;;;;;;5098472;28;20044;-78
2023/01/19 07:07:34;;;;;;;4.30;1.15;;;1.90;99.90;;;;;;5099416;28;20048;-77
2023/01/19 07:10:00;;;;;;;7.13;1.95;;;1.90;99.90;;;;;;5080849;28;20048;-76
2023/01/19 07:12:25;;;;;;;2.67;0.85;;;1.90;99.90;;;;;;5099472;28;20042;-78
2023/01/19 07:14:51;;;;;;;2.88;1.02;;;1.90;99.90;;;;;;5077548;28;20408;-78
2023/01/19 07:17:18;;;;;;;2.13;0.75;;;2.00;99.90;;;;;;5062493;28;20078;-77
2023/01/19 07:19:45;;;;;;;1.85;0.80;;;2.00;99.90;;;;;;5077806;28;20045;-77
2023/01/19 07:22:11;;;;;;;2.42;0.90;;;2.10;99.90;;;;;;5077909;28;20179;-80
2023/01/19 07:24:36;;;;;;;2.20;0.98;;;2.20;99.90;;;;;;5078911;28;20072;-79
2023/01/19 07:27:04;;;;;;;2.25;0.98;;;2.20;99.90;;;;;;5111218;28;20079;-79
2023/01/19 07:29:29;;;;;;;3.08;1.05;;;2.40;99.90;;;;;;5084539;28;20486;-80
2023/01/19 07:31:55;;;;;;;4.25;0.95;;;2.30;99.90;;;;;;5097585;28;20040;-77
2023/01/19 07:34:21;;;;;;;6.00;0.90;;;2.30;99.90;;;;;;5084641;28;20084;-78
2023/01/19 07:36:47;;;;;;;3.95;0.90;;;2.30;99.90;;;;;;5086060;28;20047;-80
2023/01/19 07:39:13;;;;;;;3.17;0.90;;;2.20;99.90;;;;;;5099500;28;20051;-77
2023/01/19 07:41:39;;;;;;;2.65;0.95;;;2.20;99.90;;;;;;5088994;28;20042;-78
2023/01/19 07:44:04;;;;;;;4.38;0.90;;;2.20;99.90;;;;;;5079490;28;20041;-78
2023/01/19 07:46:30;;;;;;;3.95;0.90;;;2.20;99.90;;;;;;5060765;28;20101;-79
2023/01/19 07:48:56;;;;;;;1.77;0.70;;;2.20;99.90;;;;;;5077356;28;20041;-78
2023/01/19 07:51:22;;;;;;;4.75;0.70;;;2.30;99.90;;;;;;5079878;28;20382;-78
2023/01/19 07:53:51;;;;;;;3.40;0.70;;;2.30;99.90;;;;;;5077012;28;20037;-79
2023/01/19 07:56:16;;;;;;;4.60;0.77;;;2.30;99.90;;;;;;5063468;28;20545;-77
2023/01/19 07:58:42;;;;;;;5.53;1.30;;;2.30;99.90;;;;;;5078930;28;20084;-79
2023/01/19 08:01:09;;;;;;;4.13;0.90;;;2.30;99.90;;;;;;5112528;28;20067;-80
2023/01/19 08:03:35;;;;;;;4.93;1.10;;;2.40;99.90;;;;;;5087331;28;20127;-81
2023/01/19 08:06:02;;;;;;;3.22;1.30;;;2.80;99.90;;;;;;5063452;28;20103;-79
2023/01/19 08:08:31;;;;;;;2.00;0.80;;;2.70;99.90;;;;;;5077470;28;20060;-79
2023/01/19 08:10:57;;;;;;;4.55;1.15;;;2.60;99.90;;;;;;5076997;28;20052;-80
2023/01/19 08:13:23;;;;;;;5.30;0.88;;;2.70;99.90;;;;;;5076863;28;20043;-78
2023/01/19 08:15:51;;;;;;;5.05;1.00;;;2.70;99.90;;;;;;5049349;28;20048;-78
2023/01/19 08:18:16;;;;;;;3.22;0.80;;;2.80;99.90;;;;;;5068120;28;20048;-79
2023/01/19 08:20:42;;;;;;;7.78;1.10;;;2.80;99.90;;;;;;5076951;28;20052;-80
2023/01/19 08:23:08;;;;;;;3.67;0.88;;;2.80;99.90;;;;;;5058407;28;20080;-79
2023/01/19 08:25:40;;;;;;;4.78;0.82;;;2.90;99.90;;;;;;5060729;28;20044;-80
2023/01/19 08:28:08;;;;;;;9.73;1.80;;;2.90;99.90;;;;;;5074686;28;20048;-78
2023/01/19 08:30:34;;;;;;;4.15;0.80;;;2.90;99.90;;;;;;5076746;28;20048;-78
2023/01/19 08:33:02;;;;;;;3.75;1.13;;;3.10;99.90;;;;;;5076589;28;20052;-78
2023/01/19 08:35:33;;;;;;;5.25;1.00;;;2.80;99.90;;;;;;5075809;28;20127;-77
2023/01/19 08:38:00;;;;;;;2.63;1.02;;;2.80;99.90;;;;;;5078099;28;20048;-80
2023/01/19 08:40:34;;;;;;;4.65;1.42;;;2.80;99.90;;;;;;5075451;28;20114;-78
2023/01/19 08:43:06;;;;;;;4.35;1.02;;;2.70;99.90;;;;;;5060451;28;20050;-77
2023/01/19 08:45:37;;;;;;;3.85;1.20;;;2.70;99.90;;;;;;5076720;28;20048;-79
2023/01/19 08:48:05;;;;;;;4.80;1.30;;;2.60;99.90;;;;;;5075695;28;20036;-78
2023/01/19 08:50:31;;;;;;;2.65;0.98;;;2.60;99.90;;;;;;5088510;28;20044;-77
2023/01/19 08:52:59;;;;;;;3.58;1.80;;;2.70;99.90;;;;;;5071999;28;20056;-77
2023/01/19 08:55:25;;;;;;;9.10;1.73;;;2.50;99.90;;;;;;5094919;28;20115;-77
2023/01/19 08:57:52;;;;;;;4.70;1.20;;;2.50;99.90;;;;;;5056369;28;20047;-76
2023/01/19 09:00:19;;;;;;;6.68;1.10;;;2.50;99.90;;;;;;5076743;28;20123;-76
2023/01/19 09:02:46;;;;;;;5.05;1.20;;;2.40;99.90;;;;;;5076136;28;20119;-76
2023/01/19 09:05:11;;;;;;;4.07;1.08;;;2.50;99.90;;;;;;5075821;28;20048;-78
2023/01/19 09:07:37;;;;;;;5.18;1.00;;;2.50;99.90;;;;;;5048845;28;20060;-77
2023/01/19 09:10:07;;;;;;;6.35;1.05;;;2.50;99.90;;;;;;5056668;28;20084;-76
2023/01/19 09:12:32;;;;;;;6.60;1.20;;;2.60;99.90;;;;;;5077545;28;20114;-77
2023/01/19 09:14:58;;;;;;;5.97;1.17;;;2.70;99.90;;;;;;5061754;28;20049;-77
2023/01/19 09:17:24;;;;;;;7.10;1.60;;;2.80;99.90;;;;;;5070959;28;20135;-78
2023/01/19 09:19:49;;;;;;;6.47;1.98;;;2.80;99.90;;;;;;5059172;28;20100;-79
2023/01/19 09:22:15;;;;;;;8.20;1.48;;;3.00;99.90;;;;;;5075764;28;20049;-79
2023/01/19 09:24:41;;;;;;;9.30;1.70;;;3.10;99.90;;;;;;5043103;28;20075;-78
2023/01/19 09:27:06;;;;;;;8.85;1.67;;;3.20;99.90;;;;;;5056824;28;20048;-78
2023/01/19 09:29:32;;;;;;;6.13;1.60;;;3.20;99.90;;;;;;5072802;28;20502;-78
2023/01/19 09:31:58;;;;;;;6.90;1.85;;;3.30;99.90;;;;;;5072824;28;20043;-78
2023/01/19 09:34:26;;;;;;;4.88;1.48;;;3.50;99.90;;;;;;5075741;28;20114;-79
2023/01/19 09:36:52;;;;;;;4.72;1.52;;;3.60;99.90;;;;;;5075397;28;20082;-78
2023/01/19 09:39:18;;;;;;;7.40;1.20;;;3.50;99.90;;;;;;5078943;28;20049;-77
2023/01/19 09:41:49;;;;;;;4.75;1.60;;;3.50;99.90;;;;;;5098935;28;20065;-78
2023/01/19 09:44:23;;;;;;;7.32;1.77;;;3.60;99.90;;;;;;5090909;28;20519;-75
2023/01/19 09:46:49;;;;;;;6.25;1.92;;;3.60;99.90;;;;;;5078030;28;20059;-75
2023/01/19 09:49:25;;;;;;;3.88;1.40;;;3.70;99.90;;;;;;5077864;28;20036;-78
2023/01/19 09:51:51;;;;;;;6.47;2.15;;;3.80;99.90;;;;;;5078028;28;20499;-78
2023/01/19 09:54:34;;;;;;;6.68;1.60;;;3.80;99.90;;;;;;5079478;28;20096;-77
2023/01/19 09:57:00;;;;;;;8.07;1.88;;;3.70;99.90;;;;;;5079959;28;20041;-77
2023/01/19 09:59:31;;;;;;;8.18;1.40;;;3.70;99.90;;;;;;5080174;28;20510;-81
2023/01/19 10:02:34;;;;;;;6.10;1.70;;;3.60;99.90;;;;;;5080035;28;20120;-79
2023/01/19 10:05:23;;;;;;;3.35;1.23;;;3.60;99.90;;;;;;5078976;28;20036;-79
2023/01/19 10:08:07;;;;;;;6.10;1.10;;;3.60;99.90;;;;;;5079061;28;20083;-78
2023/01/19 10:10:35;;;;;;;10.90;1.45;;;3.70;99.90;;;;;;5076054;28;20055;-78
2023/01/19 10:13:08;;;;;;;7.55;1.30;;;3.90;99.90;;;;;;5079877;28;20052;-81
2023/01/19 10:15:52;;;;;;;6.15;1.00;;;4.10;99.90;;;;;;5077649;28;20086;-78
2023/01/19 10:18:18;;;;;;;4.22;1.30;;;4.30;99.90;;;;;;5070335;28;20041;-78
2023/01/19 10:20:48;;;;;;;6.25;1.60;;;4.20;99.90;;;;;;5080206;28;20127;-78
2023/01/19 10:23:33;;;;;;;4.82;1.20;;;4.30;99.90;;;;;;5078021;28;20040;-80
2023/01/19 10:26:04;;;;;;;3.35;1.25;;;4.50;99.90;;;;;;5081133;28;20495;-78
2023/01/19 10:28:30;;;;;;;5.60;1.30;;;4.70;99.90;;;;;;5080256;28;20455;-78
2023/01/19 10:30:56;;;;;;;4.07;1.17;;;4.80;99.90;;;;;;5078260;28;20049;-78
2023/01/19 10:33:22;;;;;;;3.97;0.95;;;5.10;99.90;;;;;;5073556;28;20049;-78
2023/01/19 10:35:48;;;;;;;1.85;0.80;;;5.40;99.90;;;;;;5066420;28;20048;-79
2023/01/19 10:38:20;;;;;;;5.03;1.48;;;5.70;99.90;;;;;;5080973;28;20048;-78
2023/01/19 10:41:14;;;;;;;5.82;1.10;;;6.00;99.90;;;;;;5077373;28;20067;-81
2023/01/19 10:43:45;;;;;;;5.15;1.45;;;6.30;99.90;;;;;;5077659;28;20052;-80
2023/01/19 10:46:27;;;;;;;4.47;0.80;;;6.60;99.90;;;;;;5079126;28;20045;-81
2023/01/19 10:48:54;;;;;;;3.80;1.10;;;6.90;99.90;;;;;;5077269;28;20047;-80
2023/01/19 10:51:21;;;;;;;5.32;1.02;;;7.10;99.90;;;;;;5078900;28;20059;-77
2023/01/19 10:54:13;;;;;;;8.20;1.52;;;7.30;99.90;;;;;;5077466;28;20512;-80
2023/01/19 10:56:39;;;;;;;2.88;0.98;;;7.30;99.90;;;;;;5075950;28;20049;-78
2023/01/19 10:59:06;;;;;;;7.55;1.38;;;7.40;99.90;;;;;;5072909;28;20075;-80
2023/01/19 11:01:35;;;;;;;3.78;0.80;;;7.40;99.90;;;;;;5076665;28;20127;-78
2023/01/19 11:04:20;;;;;;;6.03;2.35;;;7.60;99.90;;;;;;5078876;28;20049;-78
2023/01/19 11:06:46;;;;;;;4.22;1.02;;;7.70;99.90;;;;;;5077203;28;20040;-82
2023/01/19 11:09:20;;;;;;;5.70;1.20;;;7.80;99.90;;;;;;5064657;28;20488;-78
2023/01/19 11:11:51;;;;;;;5.38;1.48;;;7.90;99.90;;;;;;5058836;28;20124;-77
2023/01/19 11:14:22;;;;;;;2.25;1.02;;;8.00;99.90;;;;;;5074513;28;20175;-82
2023/01/19 11:16:52;;;;;;;4.03;1.27;;;8.10;99.90;;;;;;5078203;28;20116;-79
2023/01/19 11:19:25;;;;;;;4.93;1.75;;;8.30;99.90;;;;;;5066987;28;20132;-78
2023/01/19 11:21:52;;;;;;;5.43;1.00;;;8.30;99.90;;;;;;5058241;28;20513;-79
2023/01/19 11:24:19;;;;;;;5.10;1.17;;;8.10;99.90;;;;;;5077311;28;20036;-78
2023/01/19 11:26:56;;;;;;;3.60;1.00;;;7.80;99.90;;;;;;5077186;28;20074;-78
2023/01/19 11:29:25;;;;;;;3.00;1.02;;;7.50;99.90;;;;;;5078817;28;20546;-80
2023/01/19 11:31:52;;;;;;;5.03;1.10;;;7.00;99.90;;;;;;5076764;28;20045;-79
2023/01/19 11:34:33;;;;;;;6.55;1.13;;;6.70;99.90;;;;;;5078424;28;20055;-77
2023/01/19 11:37:17;;;;;;;4.38;1.20;;;6.40;99.90;;;;;;5077123;28;20053;-78
2023/01/19 11:39:48;;;;;;;5.82;0.90;;;6.10;99.90;;;;;;5076606;28;20116;-78
2023/01/19 11:42:15;;;;;;;5.15;1.00;;;6.00;99.90;;;;;;5076991;28;20083;-80
2023/01/19 11:45:00;;;;;;;2.97;1.10;;;6.00;99.90;;;;;;5076152;28;20041;-81
2023/01/19 11:47:41;;;;;;;3.97;1.10;;;5.90;99.90;;;;;;5072188;28;20060;-78
2023/01/19 11:50:19;;;;;;;5.45;1.10;;;5.90;99.90;;;;;;5077284;28;20040;-79
2023/01/19 11:52:47;;;;;;;5.97;1.20;;;5.90;99.90;;;;;;5076511;28;20048;-78
2023/01/19 11:55:23;;;;;;;5.50;0.80;;;5.90;99.90;;;;;;5061373;28;20051;-78
2023/01/19 11:57:51;;;;;;;2.22;0.60;;;6.10;99.90;;;;;;5072711;28;20080;-80
2023/01/19 12:00:35;;;;;;;2.72;1.00;;;6.20;99.90;;;;;;5061884;28;20060;-77
2023/01/19 12:03:41;;;;;;;5.35;1.15;;;6.20;99.90;;;;;;5059306;28;20041;-77
2023/01/19 12:06:19;;;;;;;4.43;0.90;;;6.10;99.90;;;;;;5064955;28;20080;-79
2023/01/19 12:08:50;;;;;;;3.35;0.98;;;5.90;99.90;;;;;;5075327;28;20042;-81
2023/01/19 12:11:20;;;;;;;5.07;1.17;;;5.80;99.90;;;;;;5071475;28;20044;-77
2023/01/19 12:13:46;;;;;;;4.80;1.05;;;5.80;99.90;;;;;;5078839;28;20094;-78
2023/01/19 12:16:26;;;;;;;1.20;0.52;;;5.70;99.90;;;;;;5076600;28;20146;-81
2023/01/19 12:19:12;;;;;;;2.65;1.10;;;5.60;99.90;;;;;;5075494;28;20044;-78
2023/01/19 12:21:37;;;;;;;4.25;0.90;;;5.60;99.90;;;;;;5078240;28;20052;-78
2023/01/19 12:24:15;;;;;;;7.22;1.13;;;5.60;99.90;;;;;;5076459;28;20099;-79
2023/01/19 12:26:55;;;;;;;4.93;0.90;;;5.60;99.90;;;;;;5072732;28;20100;-78
2023/01/19 12:29:28;;;;;;;3.28;0.70;;;5.70;99.90;;;;;;5077450;28;20438;-79
2023/01/19 12:32:12;;;;;;;4.05;1.23;;;5.60;99.90;;;;;;5072489;28;20105;-79
2023/01/19 12:34:43;;;;;;;4.38;1.00;;;5.60;99.90;;;;;;5071095;28;20075;-81
2023/01/19 12:37:33;;;;;;;6.22;1.20;;;5.80;99.90;;;;;;5085056;28;20071;-79
2023/01/19 12:40:03;;;;;;;2.67;0.68;;;5.80;99.90;;;;;;5075250;28;20056;-78
2023/01/19 12:42:29;;;;;;;3.75;0.88;;;5.80;99.90;;;;;;5078527;28;20424;-79
2023/01/19 12:45:08;;;;;;;2.25;0.90;;;5.90;99.90;;;;;;5075258;28;20112;-80
2023/01/19 12:47:35;;;;;;;3.42;1.27;;;5.80;99.90;;;;;;5076858;28;20103;-78
2023/01/19 12:50:09;;;;;;;3.10;0.88;;;5.70;99.90;;;;;;5059567;28;20136;-78
2023/01/19 12:52:48;;;;;;;3.47;0.52;;;5.60;99.90;;;;;;5076710;28;20075;-79
2023/01/19 12:55:13;;;;;;;3.28;0.93;;;5.70;99.90;;;;;;5076940;28;20072;-78
2023/01/19 12:57:45;;;;;;;2.53;0.70;;;5.60;99.90;;;;;;5074935;28;20066;-78
2023/01/19 13:00:20;;;;;;;1.98;0.77;;;5.30;99.90;;;;;;5076585;28;20097;-79
2023/01/19 13:02:48;;;;;;;2.20;0.70;;;5.20;99.90;;;;;;5076266;28;20045;-79
2023/01/19 13:05:20;;;;;;;4.38;0.88;;;5.10;99.90;;;;;;5075525;28;20063;-79
2023/01/19 13:08:01;;;;;;;4.10;0.85;;;5.00;99.90;;;;;;5076900;28;20104;-77
2023/01/19 13:11:11;;;;;;;4.85;0.80;;;4.90;99.90;;;;;;5062384;28;20524;-78